Time;durP1;ratioP1;P1;durP2;ratioP2;P2;SDS_P1;SDS_P2;PMS_P1;PMS_P2;Temp;Humidity;BMP_temperature;BMP_pressure;BME280_temperature;BME280_humidity;BME280_pressure;Samples;Min_cycle;Max_cycle;Signal;HPM_P1;HPM_P2
2023/11/19 00:00:21;;;;;;;2.47;2.38;;;;;;;;;;5038706;28;20040;-63
2023/11/19 00:02:49;;;;;;;2.30;2.20;;;;;;;;;;5045540;28;20052;-62
2023/11/19 00:05:18;;;;;;;2.13;2.03;;;;;;;;;;5046503;28;20468;-61
2023/11/19 00:07:46;;;;;;;2.60;2.50;;;;;;;;;;5042235;28;20170;-59
2023/11/19 00:10:18;;;;;;;2.60;2.50;;;;;;;;;;5040217;28;20057;-61
2023/11/19 00:12:48;;;;;;;2.42;2.33;;;;;;;;;;5035012;28;20492;-65
2023/11/19 00:15:18;;;;;;;2.58;2.47;;;;;;;;;;5045671;28;20048;-64
2023/11/19 00:17:48;;;;;;;2.08;1.98;;;;;;;;;;5047475;28;20376;-60
2023/11/19 00:20:18;;;;;;;2.30;2.20;;;;;;;;;;5042576;28;20486;-63
2023/11/19 00:22:48;;;;;;;2.10;2.00;;;;;;;;;;5042675;28;20041;-60
2023/11/19 00:25:19;;;;;;;2.60;2.50;;;;;;;;;;5043610;28;20049;-60
2023/11/19 00:27:47;;;;;;;2.35;2.25;;;;;;;;;;5046356;28;20408;-60
2023/11/19 00:30:16;;;;;;;2.13;2.03;;;;;;;;;;5041680;28;20045;-60
2023/11/19 00:32:45;;;;;;;2.65;2.50;;;;;;;;;;5047016;28;20647;-63
2023/11/19 00:35:14;;;;;;;2.47;2.30;;;;;;;;;;5036449;28;20103;-66
2023/11/19 00:37:45;;;;;;;2.58;2.47;;;;;;;;;;5040787;28;20076;-60
2023/11/19 00:40:15;;;;;;;2.20;2.10;;;;;;;;;;5043031;28;20048;-63
2023/11/19 00:42:46;;;;;;;2.10;2.00;;;;;;;;;;5044145;28;20136;-63
2023/11/19 00:45:14;;;;;;;2.05;1.95;;;;;;;;;;5037646;28;20053;-63
2023/11/19 00:47:43;;;;;;;2.47;2.38;;;;;;;;;;5046057;28;20144;-61
2023/11/19 00:50:12;;;;;;;2.38;2.28;;;;;;;;;;5032737;28;20057;-63
2023/11/19 00:52:41;;;;;;;2.20;2.10;;;;;;;;;;5046401;28;20065;-60
2023/11/19 00:55:11;;;;;;;2.05;1.95;;;;;;;;;;5044255;28;20059;-62
2023/11/19 00:57:39;;;;;;;2.22;2.13;;;;;;;;;;5044507;28;20040;-61
2023/11/19 01:00:17;;;;;;;2.30;2.20;;;;;;;;;;5039677;28;20506;-60
2023/11/19 01:02:49;;;;;;;2.33;2.22;;;;;;;;;;5044867;28;20056;-60
2023/11/19 01:05:21;;;;;;;2.47;2.38;;;;;;;;;;5047334;28;20045;-60
2023/11/19 01:07:50;;;;;;;2.03;1.92;;;;;;;;;;5046030;28;20049;-60
2023/11/19 01:10:18;;;;;;;2.40;2.30;;;;;;;;;;5044154;28;20136;-61
2023/11/19 01:12:47;;;;;;;2.65;2.55;;;;;;;;;;5043954;28;20096;-61
2023/11/19 01:15:18;;;;;;;2.40;2.30;;;;;;;;;;5044100;28;20418;-62
2023/11/19 01:17:47;;;;;;;2.50;2.40;;;;;;;;;;5045868;28;20049;-60
2023/11/19 01:20:18;;;;;;;2.40;2.30;;;;;;;;;;5046801;28;20150;-62
2023/11/19 01:22:48;;;;;;;2.60;2.50;;;;;;;;;;5047301;28;20048;-61
2023/11/19 01:25:17;;;;;;;2.70;2.60;;;;;;;;;;5045178;28;20132;-58
2023/11/19 01:27:45;;;;;;;2.63;2.38;;;;;;;;;;5043474;28;20491;-61
2023/11/19 01:30:14;;;;;;;2.70;2.60;;;;;;;;;;5032740;28;20041;-58
2023/11/19 01:32:44;;;;;;;2.30;2.20;;;;;;;;;;5046230;28;20136;-59
2023/11/19 01:35:13;;;;;;;2.30;2.20;;;;;;;;;;5036629;28;20498;-59
2023/11/19 01:37:41;;;;;;;2.45;2.35;;;;;;;;;;5044706;28;20049;-63
2023/11/19 01:40:11;;;;;;;2.60;2.42;;;;;;;;;;5045135;28;20140;-60
2023/11/19 01:42:40;;;;;;;2.30;2.20;;;;;;;;;;5046924;28;20044;-61
2023/11/19 01:45:09;;;;;;;2.15;2.05;;;;;;;;;;5042182;28;20064;-60
2023/11/19 01:47:39;;;;;;;2.58;2.40;;;;;;;;;;5041743;28;20370;-60
2023/11/19 01:50:09;;;;;;;2.30;2.20;;;;;;;;;;5049431;28;20520;-59
2023/11/19 01:52:38;;;;;;;2.90;2.80;;;;;;;;;;5038923;28;20438;-59
2023/11/19 01:55:08;;;;;;;2.13;2.03;;;;;;;;;;5050604;28;20155;-59
2023/11/19 01:57:38;;;;;;;2.28;2.17;;;;;;;;;;5049369;28;20056;-60
2023/11/19 02:00:11;;;;;;;2.20;2.10;;;;;;;;;;5047434;28;20566;-62
2023/11/19 02:02:40;;;;;;;2.13;2.03;;;;;;;;;;5047436;28;20049;-59
2023/11/19 02:05:11;;;;;;;2.05;1.95;;;;;;;;;;5046359;28;20417;-60
2023/11/19 02:07:39;;;;;;;2.72;2.63;;;;;;;;;;5048935;28;20107;-60
2023/11/19 02:10:14;;;;;;;2.65;2.45;;;;;;;;;;5046611;28;20139;-60
2023/11/19 02:12:43;;;;;;;2.40;2.30;;;;;;;;;;5049577;28;20103;-62
2023/11/19 02:15:12;;;;;;;2.20;2.10;;;;;;;;;;5046349;28;20083;-60
2023/11/19 02:17:40;;;;;;;2.30;2.20;;;;;;;;;;5049338;28;20052;-59
2023/11/19 02:20:11;;;;;;;3.20;3.10;;;;;;;;;;5035411;28;20505;-60
2023/11/19 02:22:41;;;;;;;2.65;2.55;;;;;;;;;;5049030;28;20051;-65
2023/11/19 02:25:12;;;;;;;2.85;2.75;;;;;;;;;;5040653;28;20407;-61
2023/11/19 02:27:48;;;;;;;2.92;2.83;;;;;;;;;;5049079;28;20037;-59
2023/11/19 02:30:17;;;;;;;2.80;2.70;;;;;;;;;;5044287;28;20075;-63
2023/11/19 02:32:46;;;;;;;3.10;3.00;;;;;;;;;;5049874;28;20080;-60
2023/11/19 02:35:14;;;;;;;2.97;2.88;;;;;;;;;;5046458;28;20118;-63
2023/11/19 02:37:43;;;;;;;2.95;2.85;;;;;;;;;;5047753;28;20077;-62
2023/11/19 02:40:11;;;;;;;3.08;2.97;;;;;;;;;;5047568;28;20084;-59
2023/11/19 02:42:41;;;;;;;2.75;2.65;;;;;;;;;;5045529;28;20041;-63
2023/11/19 02:45:14;;;;;;;3.20;3.10;;;;;;;;;;5048477;28;20098;-62
2023/11/19 02:47:43;;;;;;;3.35;3.25;;;;;;;;;;5047716;28;20049;-61
2023/11/19 02:50:14;;;;;;;2.60;2.50;;;;;;;;;;5048542;28;20052;-60
2023/11/19 02:52:42;;;;;;;2.33;2.20;;;;;;;;;;5049301;28;20486;-60
2023/11/19 02:55:12;;;;;;;1.95;1.85;;;;;;;;;;5039846;28;20477;-59
2023/11/19 02:57:47;;;;;;;2.38;2.28;;;;;;;;;;5048382;28;20049;-61
2023/11/19 03:00:18;;;;;;;1.92;1.83;;;;;;;;;;5047514;28;20041;-62
2023/11/19 03:02:47;;;;;;;2.22;2.13;;;;;;;;;;5038826;28;20126;-60
2023/11/19 03:05:16;;;;;;;2.20;2.10;;;;;;;;;;5049732;28;20045;-59
2023/11/19 03:07:45;;;;;;;2.33;2.22;;;;;;;;;;5048279;28;20434;-62
2023/11/19 03:10:14;;;;;;;2.20;2.10;;;;;;;;;;5048109;28;20049;-61
2023/11/19 03:12:43;;;;;;;2.47;2.38;;;;;;;;;;5041800;28;20046;-62
2023/11/19 03:15:12;;;;;;;2.15;2.03;;;;;;;;;;5041997;28;20041;-62
2023/11/19 03:17:42;;;;;;;2.20;2.10;;;;;;;;;;5043126;28;20099;-63
2023/11/19 03:20:14;;;;;;;2.15;2.05;;;;;;;;;;5046093;28;20040;-63
2023/11/19 03:22:43;;;;;;;2.20;2.10;;;;;;;;;;5047969;28;20049;-62
2023/11/19 03:25:12;;;;;;;2.30;2.20;;;;;;;;;;5048812;28;20053;-61
2023/11/19 03:27:42;;;;;;;2.38;2.28;;;;;;;;;;5041553;28;20073;-62
2023/11/19 03:30:11;;;;;;;2.10;1.90;;;;;;;;;;5044158;28;20103;-65
2023/11/19 03:32:41;;;;;;;2.00;1.90;;;;;;;;;;5042733;28;20514;-59
2023/11/19 03:35:11;;;;;;;1.98;1.88;;;;;;;;;;5047555;28;20055;-61
2023/11/19 03:37:40;;;;;;;1.92;1.83;;;;;;;;;;5048367;28;20453;-61
2023/11/19 03:40:10;;;;;;;2.10;2.00;;;;;;;;;;5046605;28;20371;-59
2023/11/19 03:42:39;;;;;;;2.00;1.90;;;;;;;;;;5048807;28;20049;-59
2023/11/19 03:45:08;;;;;;;2.00;1.90;;;;;;;;;;5045354;28;20049;-63
2023/11/19 03:47:36;;;;;;;1.70;1.70;;;;;;;;;;5046825;28;20447;-60
2023/11/19 03:50:08;;;;;;;2.10;2.00;;;;;;;;;;5046464;28;20053;-58
2023/11/19 03:52:36;;;;;;;1.80;1.70;;;;;;;;;;5035268;28;20471;-59
2023/11/19 03:55:08;;;;;;;1.98;1.88;;;;;;;;;;5038530;28;20073;-59
2023/11/19 03:57:37;;;;;;;1.90;1.80;;;;;;;;;;5038942;28;20045;-59
2023/11/19 04:00:08;;;;;;;2.10;2.00;;;;;;;;;;5041824;28;20630;-62
2023/11/19 04:02:37;;;;;;;2.20;2.10;;;;;;;;;;5043938;28;20049;-61
2023/11/19 04:05:07;;;;;;;2.10;2.00;;;;;;;;;;5041597;28;20081;-59
2023/11/19 04:07:36;;;;;;;1.85;1.75;;;;;;;;;;5047059;28;20053;-59
2023/11/19 04:10:04;;;;;;;1.98;1.88;;;;;;;;;;5045228;28;20081;-60
2023/11/19 04:12:33;;;;;;;2.00;1.90;;;;;;;;;;5036119;28;20041;-62
2023/11/19 04:15:01;;;;;;;2.08;1.98;;;;;;;;;;5034943;28;20049;-61
2023/11/19 04:17:29;;;;;;;1.70;1.70;;;;;;;;;;5044110;28;20080;-59
2023/11/19 04:19:58;;;;;;;1.70;1.60;;;;;;;;;;5044305;28;20045;-60
2023/11/19 04:22:28;;;;;;;1.75;1.75;;;;;;;;;;5043639;28;20055;-61
2023/11/19 04:24:57;;;;;;;1.80;1.75;;;;;;;;;;5048391;28;20045;-61
2023/11/19 04:27:25;;;;;;;1.65;1.65;;;;;;;;;;5036611;28;20061;-64
2023/11/19 04:29:53;;;;;;;1.50;1.50;;;;;;;;;;5046416;28;20118;-63
2023/11/19 04:32:25;;;;;;;1.60;1.60;;;;;;;;;;5043162;28;20410;-61
2023/11/19 04:34:53;;;;;;;2.00;1.90;;;;;;;;;;5040203;28;20257;-62
2023/11/19 04:37:22;;;;;;;1.80;1.70;;;;;;;;;;5046229;28;20387;-61
2023/11/19 04:39:52;;;;;;;1.83;1.80;;;;;;;;;;5043096;28;20136;-63
2023/11/19 04:42:20;;;;;;;1.65;1.60;;;;;;;;;;5042789;28;20053;-60
2023/11/19 04:44:48;;;;;;;1.77;1.75;;;;;;;;;;5047575;28;20409;-61
2023/11/19 04:47:17;;;;;;;1.80;1.80;;;;;;;;;;5043410;28;20053;-62
2023/11/19 04:49:45;;;;;;;1.80;1.70;;;;;;;;;;5040095;28;20071;-62
2023/11/19 04:52:14;;;;;;;2.08;1.98;;;;;;;;;;5042322;28;20450;-62
2023/11/19 04:54:43;;;;;;;1.70;1.70;;;;;;;;;;5046705;28;20139;-59
2023/11/19 04:57:13;;;;;;;1.73;1.70;;;;;;;;;;5037876;28;20056;-64
2023/11/19 04:59:42;;;;;;;1.60;1.60;;;;;;;;;;5037269;28;20053;-65
2023/11/19 05:02:10;;;;;;;1.60;1.60;;;;;;;;;;5033819;28;20067;-58
2023/11/19 05:04:39;;;;;;;1.60;1.58;;;;;;;;;;5044138;28;20076;-63
2023/11/19 05:07:07;;;;;;;1.70;1.70;;;;;;;;;;5047169;28;20140;-63
2023/11/19 05:09:36;;;;;;;1.80;1.70;;;;;;;;;;5044753;28;20056;-59
2023/11/19 05:12:04;;;;;;;1.60;1.60;;;;;;;;;;5034708;28;20134;-59
2023/11/19 05:14:34;;;;;;;1.42;1.42;;;;;;;;;;5039349;28;20374;-58
2023/11/19 05:17:02;;;;;;;1.75;1.65;;;;;;;;;;5046201;28;20099;-61
2023/11/19 05:19:31;;;;;;;2.13;2.03;;;;;;;;;;5042029;28;20115;-61
2023/11/19 05:21:59;;;;;;;2.05;1.60;;;;;;;;;;5047669;28;20053;-60
2023/11/19 05:24:28;;;;;;;1.50;1.50;;;;;;;;;;5051234;28;20045;-59
2023/11/19 05:26:56;;;;;;;1999.90;999.90;;;;;;;;;;5036145;28;20045;-59
2023/11/19 05:29:24;;;;;;;1999.90;999.90;;;;;;;;;;5046588;28;20045;-59
2023/11/19 05:31:55;;;;;;;1999.90;999.90;;;;;;;;;;5050791;28;20468;-58
2023/11/19 05:34:24;;;;;;;1999.90;999.90;;;;;;;;;;5049259;28;20257;-58
2023/11/19 05:36:53;;;;;;;1999.90;999.90;;;;;;;;;;5050699;28;20052;-61
2023/11/19 05:39:21;;;;;;;1999.90;999.90;;;;;;;;;;5050328;28;20186;-61
2023/11/19 05:41:50;;;;;;;1999.90;999.90;;;;;;;;;;5043029;28;20498;-58
2023/11/19 05:44:19;;;;;;;1999.90;999.90;;;;;;;;;;5050317;28;20041;-59
2023/11/19 05:46:47;;;;;;;1999.90;999.90;;;;;;;;;;5043405;28;20052;-59
2023/11/19 05:49:17;;;;;;;1999.90;999.90;;;;;;;;;;5048229;28;20059;-60
2023/11/19 05:51:47;;;;;;;1999.90;999.90;;;;;;;;;;5046827;28;20081;-59
2023/11/19 05:54:15;;;;;;;1999.90;999.90;;;;;;;;;;5050143;28;20037;-61
2023/11/19 05:56:49;;;;;;;1999.90;999.90;;;;;;;;;;5050069;28;20052;-58
2023/11/19 05:59:17;;;;;;;1999.90;999.90;;;;;;;;;;5061857;28;20077;-60
2023/11/19 06:01:46;;;;;;;1999.90;999.90;;;;;;;;;;5048276;28;20045;-62
2023/11/19 06:04:14;;;;;;;1999.90;999.90;;;;;;;;;;5044712;28;20053;-61
2023/11/19 06:06:45;;;;;;;1999.90;999.90;;;;;;;;;;5039088;28;20453;-62
2023/11/19 06:09:13;;;;;;;1999.90;999.90;;;;;;;;;;5048224;28;20099;-59
2023/11/19 06:11:42;;;;;;;1999.90;999.90;;;;;;;;;;5050682;28;20073;-63
2023/11/19 06:14:11;;;;;;;1999.90;999.90;;;;;;;;;;5047659;28;20099;-61
2023/11/19 06:16:40;;;;;;;1999.90;999.90;;;;;;;;;;5036783;28;20045;-61
2023/11/19 06:19:09;;;;;;;1999.90;999.90;;;;;;;;;;5034320;28;20470;-61
2023/11/19 06:21:38;;;;;;;1999.90;999.90;;;;;;;;;;5045959;28;20048;-58
2023/11/19 06:24:08;;;;;;;1999.90;999.90;;;;;;;;;;5046540;28;20048;-61
2023/11/19 06:26:37;;;;;;;1999.90;999.90;;;;;;;;;;5045086;28;20045;-62
2023/11/19 06:29:05;;;;;;;1999.90;999.90;;;;;;;;;;5036395;28;20139;-60
2023/11/19 06:31:34;;;;;;;1999.90;999.90;;;;;;;;;;5040613;28;20079;-61
2023/11/19 06:34:02;;;;;;;1999.90;999.90;;;;;;;;;;5036392;28;20045;-59
2023/11/19 06:36:30;;;;;;;1999.90;999.90;;;;;;;;;;5040520;28;20051;-60
2023/11/19 06:38:59;;;;;;;1999.90;999.90;;;;;;;;;;5046577;28;20540;-60
2023/11/19 06:41:29;;;;;;;1999.90;999.90;;;;;;;;;;5046811;28;20057;-58
2023/11/19 06:43:57;;;;;;;1999.90;999.90;;;;;;;;;;5044724;28;20053;-62
2023/11/19 06:46:26;;;;;;;1999.90;999.90;;;;;;;;;;5046408;28;20053;-59
2023/11/19 06:48:54;;;;;;;1999.90;999.90;;;;;;;;;;5046743;28;20052;-59
2023/11/19 06:51:24;;;;;;;1999.90;999.90;;;;;;;;;;5043669;28;20102;-59
2023/11/19 06:53:52;;;;;;;1999.90;999.90;;;;;;;;;;5041001;28;20126;-62
2023/11/19 06:56:22;;;;;;;1999.90;999.90;;;;;;;;;;5047320;28;20048;-60
2023/11/19 06:58:51;;;;;;;1999.90;999.90;;;;;;;;;;5044933;28;20483;-61
2023/11/19 07:01:20;;;;;;;1999.90;999.90;;;;;;;;;;5044011;28;20102;-62
2023/11/19 07:03:51;;;;;;;1999.90;999.90;;;;;;;;;;5044771;28;20132;-65
2023/11/19 07:06:19;;;;;;;1999.90;999.90;;;;;;;;;;5042781;28;20041;-61
2023/11/19 07:09:06;;;;;;;1999.90;999.90;;;;;;;;;;5034847;28;20047;-60
2023/11/19 07:11:35;;;;;;;1999.90;999.90;;;;;;;;;;5041400;28;20118;-59
2023/11/19 07:14:06;;;;;;;1999.90;999.90;;;;;;;;;;5041441;28;20041;-61
2023/11/19 07:16:34;;;;;;;1999.90;999.90;;;;;;;;;;5036164;28;20064;-62
2023/11/19 07:19:03;;;;;;;1999.90;999.90;;;;;;;;;;5038597;28;20506;-61
2023/11/19 07:21:32;;;;;;;1999.90;999.90;;;;;;;;;;5045666;28;20045;-57
2023/11/19 07:24:01;;;;;;;1999.90;999.90;;;;;;;;;;5047782;28;20072;-63
2023/11/19 07:26:29;;;;;;;1999.90;999.90;;;;;;;;;;5046603;28;20049;-61
2023/11/19 07:28:57;;;;;;;1999.90;999.90;;;;;;;;;;5036223;28;20536;-65
2023/11/19 07:31:27;;;;;;;1999.90;999.90;;;;;;;;;;5047336;28;20084;-59
2023/11/19 07:33:56;;;;;;;1999.90;999.90;;;;;;;;;;5038925;28;20076;-59
2023/11/19 07:36:24;;;;;;;1999.90;999.90;;;;;;;;;;5044266;28;20103;-62
2023/11/19 07:38:52;;;;;;;1999.90;999.90;;;;;;;;;;5040308;28;20072;-61
2023/11/19 07:41:21;;;;;;;1999.90;999.90;;;;;;;;;;5041927;28;20057;-61
2023/11/19 07:43:50;;;;;;;1999.90;999.90;;;;;;;;;;5041993;28;20075;-60
2023/11/19 07:46:19;;;;;;;1999.90;999.90;;;;;;;;;;5046706;28;20056;-59
2023/11/19 07:48:49;;;;;;;1999.90;999.90;;;;;;;;;;5040153;28;20044;-59
2023/11/19 07:51:17;;;;;;;1999.90;999.90;;;;;;;;;;5041464;28;20049;-60
2023/11/19 07:53:46;;;;;;;1999.90;999.90;;;;;;;;;;5038847;28;20053;-63
2023/11/19 07:56:14;;;;;;;1999.90;999.90;;;;;;;;;;5042707;28;20045;-60
2023/11/19 07:58:43;;;;;;;1999.90;999.90;;;;;;;;;;5040074;28;21518;-61
2023/11/19 08:01:12;;;;;;;1999.90;999.90;;;;;;;;;;5041915;28;20493;-62
2023/11/19 08:03:40;;;;;;;1999.90;999.90;;;;;;;;;;5039707;28;20624;-58
2023/11/19 08:06:26;;;;;;;1999.90;999.90;;;;;;;;;;5040671;28;20103;-60
2023/11/19 08:08:54;;;;;;;1999.90;999.90;;;;;;;;;;5035542;28;20076;-63
2023/11/19 08:11:22;;;;;;;1999.90;999.90;;;;;;;;;;5042163;28;20053;-62
2023/11/19 08:13:51;;;;;;;1999.90;999.90;;;;;;;;;;5043499;28;20568;-64
2023/11/19 08:16:19;;;;;;;1999.90;999.90;;;;;;;;;;5043143;28;20049;-57
2023/11/19 08:18:48;;;;;;;1999.90;999.90;;;;;;;;;;5043820;28;20053;-64
2023/11/19 08:21:16;;;;;;;1999.90;999.90;;;;;;;;;;5031218;28;20045;-57
2023/11/19 08:23:46;;;;;;;1999.90;999.90;;;;;;;;;;5042068;28;20402;-58
2023/11/19 08:26:16;;;;;;;1999.90;999.90;;;;;;;;;;5042697;28;20124;-58
2023/11/19 08:28:49;;;;;;;1999.90;999.90;;;;;;;;;;5046653;28;20414;-62
2023/11/19 08:31:17;;;;;;;1999.90;999.90;;;;;;;;;;5044963;28;20874;-61
2023/11/19 08:33:45;;;;;;;1999.90;999.90;;;;;;;;;;5042420;28;20048;-63
2023/11/19 08:36:17;;;;;;;1999.90;999.90;;;;;;;;;;5039128;28;20037;-58
2023/11/19 08:38:48;;;;;;;1999.90;999.90;;;;;;;;;;5043625;28;20524;-61
2023/11/19 08:41:17;;;;;;;1999.90;999.90;;;;;;;;;;5045657;28;20148;-58
2023/11/19 08:43:46;;;;;;;1999.90;999.90;;;;;;;;;;5046713;28;20037;-59
2023/11/19 08:46:15;;;;;;;1999.90;999.90;;;;;;;;;;5043141;28;20103;-63
2023/11/19 08:48:43;;;;;;;1999.90;999.90;;;;;;;;;;5043474;28;20056;-64
2023/11/19 08:51:12;;;;;;;1999.90;999.90;;;;;;;;;;5037768;28;22171;-61
2023/11/19 08:53:40;;;;;;;1999.90;999.90;;;;;;;;;;5041202;28;20079;-64
2023/11/19 08:56:10;;;;;;;1999.90;999.90;;;;;;;;;;5045989;28;20056;-58
2023/11/19 08:58:38;;;;;;;1999.90;999.90;;;;;;;;;;5049820;28;20049;-58
2023/11/19 09:01:07;;;;;;;1999.90;999.90;;;;;;;;;;5042984;28;20077;-59
2023/11/19 09:03:36;;;;;;;1999.90;999.90;;;;;;;;;;5048328;28;20757;-60
2023/11/19 09:06:05;;;;;;;1999.90;999.90;;;;;;;;;;5049865;28;20041;-62
2023/11/19 09:08:33;;;;;;;1999.90;999.90;;;;;;;;;;5047141;28;20073;-65
2023/11/19 09:11:02;;;;;;;1999.90;999.90;;;;;;;;;;5050042;28;20048;-60
2023/11/19 09:13:32;;;;;;;1999.90;999.90;;;;;;;;;;5048689;28;20053;-57
2023/11/19 09:16:03;;;;;;;1999.90;999.90;;;;;;;;;;5048289;28;20126;-61
2023/11/19 09:18:32;;;;;;;1999.90;999.90;;;;;;;;;;5046746;28;20064;-61
2023/11/19 09:21:01;;;;;;;1999.90;999.90;;;;;;;;;;5048839;28;20132;-59
2023/11/19 09:23:32;;;;;;;1999.90;999.90;;;;;;;;;;5047724;28;20099;-61
2023/11/19 09:26:01;;;;;;;1999.90;999.90;;;;;;;;;;5049618;28;20068;-62
2023/11/19 09:28:29;;;;;;;1999.90;999.90;;;;;;;;;;5046748;28;20464;-59
2023/11/19 09:30:59;;;;;;;1999.90;999.90;;;;;;;;;;5047885;28;20044;-57
2023/11/19 09:33:28;;;;;;;1999.90;999.90;;;;;;;;;;5044461;28;20077;-59
2023/11/19 09:35:57;;;;;;;1999.90;999.90;;;;;;;;;;5049341;28;20089;-59
2023/11/19 09:38:26;;;;;;;1999.90;999.90;;;;;;;;;;5047427;28;20118;-58
2023/11/19 09:40:54;;;;;;;1999.90;999.90;;;;;;;;;;5049590;28;20132;-61
2023/11/19 09:43:23;;;;;;;1999.90;999.90;;;;;;;;;;5044394;28;20494;-62
2023/11/19 09:45:52;;;;;;;1999.90;999.90;;;;;;;;;;5046487;28;20096;-62
2023/11/19 09:48:22;;;;;;;1999.90;999.90;;;;;;;;;;5038708;28;20053;-60
2023/11/19 09:50:52;;;;;;;1999.90;999.90;;;;;;;;;;5046337;28;20083;-60
2023/11/19 09:53:21;;;;;;;1999.90;999.90;;;;;;;;;;5045722;28;20041;-59
2023/11/19 09:55:49;;;;;;;1999.90;999.90;;;;;;;;;;5047426;28;20083;-60
2023/11/19 09:58:18;;;;;;;1999.90;999.90;;;;;;;;;;5034736;28;20127;-60
2023/11/19 10:00:46;;;;;;;1999.90;999.90;;;;;;;;;;5042406;28;20102;-62
2023/11/19 10:03:38;;;;;;;1999.90;999.90;;;;;;;;;;5041975;28;20037;-60
2023/11/19 10:06:08;;;;;;;1999.90;999.90;;;;;;;;;;5036745;28;20057;-62
2023/11/19 10:08:39;;;;;;;1999.90;999.90;;;;;;;;;;5043553;28;20593;-63
2023/11/19 10:11:07;;;;;;;1999.90;999.90;;;;;;;;;;5046798;28;20048;-60
2023/11/19 10:13:38;;;;;;;1999.90;999.90;;;;;;;;;;5048556;28;20485;-62
2023/11/19 10:16:11;;;;;;;1999.90;999.90;;;;;;;;;;5031497;28;20155;-62
2023/11/19 10:18:44;;;;;;;1999.90;999.90;;;;;;;;;;5036416;28;20053;-63
2023/11/19 10:21:16;;;;;;;1999.90;999.90;;;;;;;;;;5040180;28;20044;-60
2023/11/19 10:23:50;;;;;;;1999.90;999.90;;;;;;;;;;5041028;28;20067;-59
2023/11/19 10:26:19;;;;;;;1999.90;999.90;;;;;;;;;;5042801;28;20167;-63
2023/11/19 10:28:48;;;;;;;1999.90;999.90;;;;;;;;;;5042426;28;20128;-60
2023/11/19 10:31:17;;;;;;;1999.90;999.90;;;;;;;;;;5045252;28;20148;-62
2023/11/19 10:33:47;;;;;;;1999.90;999.90;;;;;;;;;;5042667;28;20067;-63
2023/11/19 10:36:17;;;;;;;1999.90;999.90;;;;;;;;;;5043852;28;20064;-61
2023/11/19 10:38:53;;;;;;;1999.90;999.90;;;;;;;;;;5048927;28;20053;-62
2023/11/19 10:41:28;;;;;;;1999.90;999.90;;;;;;;;;;5037904;28;20060;-62
2023/11/19 10:43:56;;;;;;;;;;;;;;;;;;5046902;28;20124;-62
2023/11/19 10:46:37;;;;;;;1999.90;999.90;;;;;;;;;;5037057;28;20270;-69
2023/11/19 10:49:07;;;;;;;1999.90;999.90;;;;;;;;;;5037689;28;20052;-62
2023/11/19 10:51:35;;;;;;;1999.90;999.90;;;;;;;;;;5039358;28;20060;-63
2023/11/19 10:54:06;;;;;;;1999.90;999.90;;;;;;;;;;5044856;28;20122;-64
2023/11/19 10:56:35;;;;;;;1999.90;999.90;;;;;;;;;;5048116;28;20048;-62
2023/11/19 10:59:05;;;;;;;1999.90;999.90;;;;;;;;;;5048110;28;20049;-64
2023/11/19 11:01:52;;;;;;;1999.90;999.90;;;;;;;;;;5045198;28;20049;-61
2023/11/19 11:04:25;;;;;;;1999.90;999.90;;;;;;;;;;5045129;28;20265;-61
2023/11/19 11:06:55;;;;;;;1999.90;999.90;;;;;;;;;;5046454;28;20045;-65
2023/11/19 11:09:24;;;;;;;1999.90;999.90;;;;;;;;;;5040514;28;20098;-63
2023/11/19 11:11:53;;;;;;;1999.90;999.90;;;;;;;;;;5045199;28;20132;-62
2023/11/19 11:14:22;;;;;;;1999.90;999.90;;;;;;;;;;5040095;28;20407;-63
2023/11/19 11:16:51;;;;;;;1999.90;999.90;;;;;;;;;;5042718;28;20045;-62
2023/11/19 11:19:20;;;;;;;1999.90;999.90;;;;;;;;;;5044077;28;20060;-63
2023/11/19 11:21:52;;;;;;;1999.90;999.90;;;;;;;;;;5034902;28;20480;-60
2023/11/19 11:24:41;;;;;;;1999.90;999.90;;;;;;;;;;5044263;28;20128;-59
2023/11/19 11:27:18;;;;;;;1999.90;999.90;;;;;;;;;;5027036;28;20045;-60
2023/11/19 11:29:49;;;;;;;1999.90;999.90;;;;;;;;;;5036087;28;20086;-67
2023/11/19 11:32:22;;;;;;;1999.90;999.90;;;;;;;;;;5039639;28;20489;-59
2023/11/19 11:35:14;;;;;;;1999.90;999.90;;;;;;;;;;5046081;28;20053;-61
2023/11/19 11:37:47;;;;;;;1999.90;999.90;;;;;;;;;;5043351;28;20471;-63
2023/11/19 11:40:18;;;;;;;1999.90;999.90;;;;;;;;;;5038030;28;20425;-59
2023/11/19 11:42:46;;;;;;;1999.90;999.90;;;;;;;;;;5041536;28;20072;-60
2023/11/19 11:45:16;;;;;;;1999.90;999.90;;;;;;;;;;5038633;28;20045;-59
2023/11/19 11:48:02;;;;;;;1999.90;999.90;;;;;;;;;;5037243;28;20049;-61
2023/11/19 11:50:30;;;;;;;1999.90;999.90;;;;;;;;;;5043130;28;20050;-63
2023/11/19 11:53:19;;;;;;;1999.90;999.90;;;;;;;;;;5038957;28;20041;-64
2023/11/19 11:55:56;;;;;;;1999.90;999.90;;;;;;;;;;5041621;28;20045;-61
2023/11/19 11:58:26;;;;;;;1999.90;999.90;;;;;;;;;;5044860;28;20044;-65
2023/11/19 12:00:54;;;;;;;1999.90;999.90;;;;;;;;;;5041775;28;20536;-64
2023/11/19 12:03:23;;;;;;;1999.90;999.90;;;;;;;;;;5042326;28;20465;-61
2023/11/19 12:05:52;;;;;;;1999.90;999.90;;;;;;;;;;5036824;28;20055;-63
2023/11/19 12:08:26;;;;;;;1999.90;999.90;;;;;;;;;;5041230;28;20460;-61
2023/11/19 12:10:57;;;;;;;1999.90;999.90;;;;;;;;;;5041895;28;20053;-66
2023/11/19 12:13:27;;;;;;;1999.90;999.90;;;;;;;;;;5044874;28;20983;-60
2023/11/19 12:16:11;;;;;;;1999.90;999.90;;;;;;;;;;5038439;28;20049;-61
2023/11/19 12:18:41;;;;;;;1999.90;999.90;;;;;;;;;;5042229;28;20057;-61
2023/11/19 12:21:13;;;;;;;1999.90;999.90;;;;;;;;;;5037683;28;20076;-63
2023/11/19 12:23:49;;;;;;;1999.90;999.90;;;;;;;;;;5038233;28;20545;-64
2023/11/19 12:26:33;;;;;;;1999.90;999.90;;;;;;;;;;5038851;28;20055;-62
2023/11/19 12:29:03;;;;;;;1999.90;999.90;;;;;;;;;;5042318;28;20132;-60
2023/11/19 12:31:38;;;;;;;1999.90;999.90;;;;;;;;;;5039783;28;20420;-61
2023/11/19 12:34:11;;;;;;;1999.90;999.90;;;;;;;;;;5039787;28;20135;-61
2023/11/19 12:36:42;;;;;;;1999.90;999.90;;;;;;;;;;5040114;28;20045;-63
2023/11/19 12:39:15;;;;;;;1999.90;999.90;;;;;;;;;;5041131;28;20052;-59
2023/11/19 12:41:52;;;;;;;1999.90;999.90;;;;;;;;;;5042378;28;20571;-63
2023/11/19 12:44:23;;;;;;;1999.90;999.90;;;;;;;;;;5037535;28;20053;-63
2023/11/19 12:47:05;;;;;;;1999.90;999.90;;;;;;;;;;5036299;28;20041;-59
2023/11/19 12:49:34;;;;;;;1999.90;999.90;;;;;;;;;;5036346;28;20052;-65
2023/11/19 12:52:03;;;;;;;1999.90;999.90;;;;;;;;;;5035376;28;20041;-62
2023/11/19 12:54:37;;;;;;;1999.90;999.90;;;;;;;;;;5038844;28;20512;-60
2023/11/19 12:57:06;;;;;;;1999.90;999.90;;;;;;;;;;5040528;28;20059;-63
2023/11/19 12:59:34;;;;;;;1999.90;999.90;;;;;;;;;;5039196;28;20052;-61
2023/11/19 13:02:05;;;;;;;1999.90;999.90;;;;;;;;;;5032264;28;20049;-67
2023/11/19 13:04:34;;;;;;;1999.90;999.90;;;;;;;;;;5044906;28;20445;-60
2023/11/19 13:07:04;;;;;;;1999.90;999.90;;;;;;;;;;5036207;28;20652;-63
2023/11/19 13:09:34;;;;;;;1.20;1.20;;;;;;;;;;5043330;28;20041;-61
2023/11/19 13:12:13;;;;;;;1.15;1.15;;;;;;;;;;5042930;28;20079;-61
2023/11/19 13:14:44;;;;;;;1.10;1.10;;;;;;;;;;5040284;28;20072;-64
2023/11/19 13:17:14;;;;;;;1.20;1.20;;;;;;;;;;5044327;28;20052;-62
2023/11/19 13:19:43;;;;;;;1.30;1.30;;;;;;;;;;5044503;28;20064;-60
2023/11/19 13:22:11;;;;;;;1.23;1.23;;;;;;;;;;5042962;28;20118;-60
2023/11/19 13:24:40;;;;;;;1.20;1.20;;;;;;;;;;5041676;28;20132;-63
2023/11/19 13:27:10;;;;;;;1.33;1.33;;;;;;;;;;5040704;28;20843;-64
2023/11/19 13:29:38;;;;;;;1.30;1.30;;;;;;;;;;5041088;28;20033;-64
2023/11/19 13:32:08;;;;;;;1.30;1.30;;;;;;;;;;5037849;28;20136;-59
2023/11/19 13:34:36;;;;;;;1.25;1.25;;;;;;;;;;5039052;28;20060;-64
2023/11/19 13:37:05;;;;;;;1.30;1.30;;;;;;;;;;5042363;28;20123;-61
2023/11/19 13:39:33;;;;;;;1.35;1.35;;;;;;;;;;5039916;28;20053;-60
2023/11/19 13:42:02;;;;;;;1.20;1.20;;;;;;;;;;5037980;28;20095;-60
2023/11/19 13:44:34;;;;;;;1.40;1.30;;;;;;;;;;5043488;28;20800;-61
2023/11/19 13:47:03;;;;;;;1.20;1.20;;;;;;;;;;5046539;28;20057;-61
2023/11/19 13:49:31;;;;;;;1.40;1.40;;;;;;;;;;5049299;28;20045;-63
2023/11/19 13:52:00;;;;;;;1.35;1.30;;;;;;;;;;5048121;28;21260;-61
2023/11/19 13:54:28;;;;;;;1.20;1.20;;;;;;;;;;5046066;28;20355;-61
2023/11/19 13:56:58;;;;;;;1.30;1.30;;;;;;;;;;5039601;28;20048;-62
2023/11/19 13:59:26;;;;;;;1.40;1.40;;;;;;;;;;5045979;28;20143;-59
2023/11/19 14:01:56;;;;;;;1.27;1.27;;;;;;;;;;5045120;28;20050;-59
2023/11/19 14:04:25;;;;;;;1.30;1.30;;;;;;;;;;5038878;28;20452;-64
2023/11/19 14:06:55;;;;;;;1.20;1.20;;;;;;;;;;5045485;28;20052;-62
2023/11/19 14:09:23;;;;;;;1.30;1.30;;;;;;;;;;5043509;28;20041;-62
2023/11/19 14:11:52;;;;;;;1.30;1.30;;;;;;;;;;5041339;28;20509;-62
2023/11/19 14:14:20;;;;;;;1.30;1.30;;;;;;;;;;5042937;28;20041;-59
2023/11/19 14:16:49;;;;;;;1.38;1.38;;;;;;;;;;5040289;28;20080;-60
2023/11/19 14:19:18;;;;;;;1.25;1.25;;;;;;;;;;5049345;28;20159;-60
2023/11/19 14:21:47;;;;;;;1.20;1.20;;;;;;;;;;5044005;28;20490;-66
2023/11/19 14:24:16;;;;;;;1.30;1.25;;;;;;;;;;5040529;28;20106;-62